EZY513 EGGP-EGAE
Flight info
| Callsign | EZY513 |
|---|---|
| Flight time | 0h 42m |
| Altitude | 24000 |
| Route | WAL M146 IPSET P6 BELZU |
| Aircraft | A320/M-SDE3FGHIRWY/LB1 |
Departure
| Time | 2026-04-26 18:28 |
|---|---|
| Airport | Liverpool John Lennon Airport (EGGP) |
Arrival
| Time | 2026-04-26 19:11 |
|---|---|
| Airport | City of Derry Airport (EGAE) |
| Time | Latitude | Longitude | Altitude | Speed | Heading |
|---|---|---|---|---|---|
| 2026-04-26 18:01 | 53.33628 | -2.85195 | 86 ft | 0 kts | 264° |
| 2026-04-26 18:20 | 53.33629 | -2.85177 | 89 ft | 2 kts | 264° |
| 2026-04-26 18:20 | 53.33630 | -2.85158 | 88 ft | 2 kts | 264° |
| 2026-04-26 18:21 | 53.33633 | -2.85120 | 88 ft | 2 kts | 264° |
| 2026-04-26 18:21 | 53.33634 | -2.85092 | 88 ft | 3 kts | 252° |
| 2026-04-26 18:21 | 53.33642 | -2.85066 | 89 ft | 3 kts | 217° |
| 2026-04-26 18:21 | 53.33645 | -2.85063 | 88 ft | 0 kts | 214° |
| 2026-04-26 18:23 | 53.33638 | -2.85065 | 89 ft | 3 kts | 196° |
| 2026-04-26 18:23 | 53.33603 | -2.85068 | 85 ft | 7 kts | 176° |
| 2026-04-26 18:24 | 53.33550 | -2.85060 | 85 ft | 7 kts | 172° |
| 2026-04-26 18:24 | 53.33531 | -2.84998 | 87 ft | 6 kts | 92° |
| 2026-04-26 18:24 | 53.33534 | -2.84886 | 85 ft | 12 kts | 86° |
| 2026-04-26 18:24 | 53.33540 | -2.84758 | 88 ft | 10 kts | 85° |
| 2026-04-26 18:25 | 53.33546 | -2.84633 | 85 ft | 15 kts | 86° |
| 2026-04-26 18:25 | 53.33557 | -2.84402 | 88 ft | 21 kts | 85° |
| 2026-04-26 18:25 | 53.33568 | -2.84146 | 89 ft | 23 kts | 85° |
| 2026-04-26 18:25 | 53.33583 | -2.83874 | 89 ft | 24 kts | 84° |
| 2026-04-26 18:26 | 53.33595 | -2.83583 | 86 ft | 26 kts | 85° |
| 2026-04-26 18:26 | 53.33599 | -2.83465 | 89 ft | 7 kts | 86° |
| 2026-04-26 18:26 | 53.33595 | -2.83385 | 88 ft | 6 kts | 110° |
| 2026-04-26 18:26 | 53.33543 | -2.83308 | 87 ft | 12 kts | 166° |
| 2026-04-26 18:27 | 53.33465 | -2.83298 | 85 ft | 10 kts | 194° |
| 2026-04-26 18:27 | 53.33437 | -2.83379 | 90 ft | 3 kts | 266° |
| 2026-04-26 18:27 | 53.33437 | -2.83380 | 90 ft | 0 kts | 266° |
| 2026-04-26 18:27 | 53.33428 | -2.83557 | 86 ft | 50 kts | 265° |
| 2026-04-26 18:28 | 53.33381 | -2.84543 | 89 ft | 117 kts | 265° |
| 2026-04-26 18:28 | 53.33309 | -2.86172 | 255 ft | 153 kts | 269° |
| 2026-04-26 18:28 | 53.33227 | -2.87927 | 1004 ft | 151 kts | 266° |
| 2026-04-26 18:28 | 53.33137 | -2.89691 | 1652 ft | 158 kts | 265° |
| 2026-04-26 18:29 | 53.33063 | -2.91637 | 2022 ft | 178 kts | 273° |
| 2026-04-26 18:29 | 53.33385 | -2.93714 | 2379 ft | 197 kts | 294° |
| 2026-04-26 18:29 | 53.34081 | -2.95837 | 2681 ft | 221 kts | 296° |
| 2026-04-26 18:29 | 53.34805 | -2.98288 | 3102 ft | 247 kts | 294° |
| 2026-04-26 18:30 | 53.35557 | -3.00976 | 3795 ft | 262 kts | 294° |
| 2026-04-26 18:30 | 53.36348 | -3.03746 | 3968 ft | 263 kts | 294° |
| 2026-04-26 18:30 | 53.37151 | -3.06498 | 4022 ft | 263 kts | 294° |
| 2026-04-26 18:30 | 53.37959 | -3.09248 | 4013 ft | 263 kts | 294° |
| 2026-04-26 18:31 | 53.38768 | -3.11997 | 4013 ft | 263 kts | 295° |
| 2026-04-26 18:31 | 53.39811 | -3.14502 | 4051 ft | 267 kts | 313° |
| 2026-04-26 18:31 | 53.41138 | -3.16727 | 4891 ft | 270 kts | 313° |
| 2026-04-26 18:31 | 53.42460 | -3.18971 | 5936 ft | 271 kts | 313° |
| 2026-04-26 18:32 | 53.43784 | -3.21229 | 6927 ft | 272 kts | 313° |
| 2026-04-26 18:32 | 53.45119 | -3.23508 | 7842 ft | 275 kts | 313° |
| 2026-04-26 18:32 | 53.46453 | -3.25785 | 8725 ft | 279 kts | 313° |
| 2026-04-26 18:32 | 53.47822 | -3.28122 | 9619 ft | 283 kts | 313° |
| 2026-04-26 18:33 | 53.49210 | -3.30497 | 10457 ft | 288 kts | 313° |
| 2026-04-26 18:33 | 53.50668 | -3.32996 | 10804 ft | 311 kts | 313° |
| 2026-04-26 18:33 | 53.52223 | -3.35671 | 11304 ft | 325 kts | 313° |
| 2026-04-26 18:33 | 53.53816 | -3.38410 | 12051 ft | 331 kts | 313° |
| 2026-04-26 18:34 | 53.55435 | -3.41192 | 12850 ft | 335 kts | 313° |
| 2026-04-26 18:34 | 53.57073 | -3.44009 | 13637 ft | 338 kts | 313° |
| 2026-04-26 18:34 | 53.58585 | -3.47067 | 14362 ft | 342 kts | 305° |
| 2026-04-26 18:34 | 53.59966 | -3.50338 | 15049 ft | 345 kts | 305° |
| 2026-04-26 18:35 | 53.61358 | -3.53642 | 15741 ft | 347 kts | 305° |
| 2026-04-26 18:35 | 53.62760 | -3.56977 | 16438 ft | 350 kts | 305° |
| 2026-04-26 18:35 | 53.64172 | -3.60338 | 17144 ft | 353 kts | 305° |
| 2026-04-26 18:35 | 53.65594 | -3.63728 | 17835 ft | 355 kts | 306° |
| 2026-04-26 18:36 | 53.67025 | -3.67143 | 18525 ft | 358 kts | 306° |
| 2026-04-26 18:36 | 53.68470 | -3.70599 | 19107 ft | 361 kts | 305° |
| 2026-04-26 18:36 | 53.69918 | -3.74063 | 19665 ft | 364 kts | 305° |
| 2026-04-26 18:36 | 53.71382 | -3.77576 | 20222 ft | 368 kts | 304° |
| 2026-04-26 18:37 | 53.72859 | -3.81122 | 20775 ft | 371 kts | 304° |
| 2026-04-26 18:37 | 53.74350 | -3.84704 | 21317 ft | 374 kts | 304° |
| 2026-04-26 18:37 | 53.75835 | -3.88276 | 21837 ft | 378 kts | 304° |
| 2026-04-26 18:37 | 53.77348 | -3.91930 | 22360 ft | 381 kts | 303° |
| 2026-04-26 18:38 | 53.78874 | -3.95624 | 22881 ft | 384 kts | 303° |
| 2026-04-26 18:38 | 53.80408 | -3.99343 | 23405 ft | 388 kts | 303° |
| 2026-04-26 18:38 | 53.81956 | -4.03102 | 23900 ft | 391 kts | 303° |
| 2026-04-26 18:38 | 53.83515 | -4.06888 | 24189 ft | 393 kts | 303° |
| 2026-04-26 18:39 | 53.85069 | -4.10668 | 24259 ft | 384 kts | 303° |
| 2026-04-26 18:39 | 53.86568 | -4.14313 | 24276 ft | 373 kts | 303° |
| 2026-04-26 18:39 | 53.88041 | -4.17898 | 24273 ft | 369 kts | 303° |
| 2026-04-26 18:39 | 53.89504 | -4.21465 | 24274 ft | 368 kts | 303° |
| 2026-04-26 18:40 | 53.90962 | -4.25031 | 24273 ft | 367 kts | 303° |
| 2026-04-26 18:40 | 53.92414 | -4.28587 | 24274 ft | 367 kts | 303° |
| 2026-04-26 18:40 | 53.93867 | -4.32145 | 24276 ft | 366 kts | 303° |
| 2026-04-26 18:40 | 53.95316 | -4.35697 | 24274 ft | 366 kts | 303° |
| 2026-04-26 18:41 | 53.96762 | -4.39249 | 24273 ft | 365 kts | 303° |
| 2026-04-26 18:41 | 53.98206 | -4.42807 | 24276 ft | 365 kts | 303° |
| 2026-04-26 18:41 | 53.99642 | -4.46354 | 24277 ft | 365 kts | 303° |
| 2026-04-26 18:41 | 54.01059 | -4.49856 | 24278 ft | 364 kts | 303° |
| 2026-04-26 18:42 | 54.02622 | -4.53255 | 24280 ft | 365 kts | 311° |
| 2026-04-26 18:42 | 54.04340 | -4.56429 | 24281 ft | 365 kts | 311° |
| 2026-04-26 18:42 | 54.06058 | -4.59609 | 24288 ft | 365 kts | 311° |
| 2026-04-26 18:42 | 54.07770 | -4.62787 | 24287 ft | 364 kts | 311° |
| 2026-04-26 18:43 | 54.09482 | -4.65969 | 24285 ft | 364 kts | 311° |
| 2026-04-26 18:43 | 54.11190 | -4.69149 | 24287 ft | 363 kts | 311° |
| 2026-04-26 18:43 | 54.12893 | -4.72328 | 24287 ft | 363 kts | 311° |
| 2026-04-26 18:43 | 54.14594 | -4.75507 | 24286 ft | 363 kts | 311° |
| 2026-04-26 18:44 | 54.16294 | -4.78683 | 24287 ft | 362 kts | 311° |
| 2026-04-26 18:44 | 54.17992 | -4.81864 | 24282 ft | 362 kts | 311° |
| 2026-04-26 18:44 | 54.19686 | -4.85044 | 24283 ft | 362 kts | 311° |
| 2026-04-26 18:44 | 54.21381 | -4.88229 | 24283 ft | 362 kts | 311° |
| 2026-04-26 18:45 | 54.23072 | -4.91411 | 24282 ft | 362 kts | 311° |
| 2026-04-26 18:45 | 54.24764 | -4.94596 | 24279 ft | 362 kts | 311° |
| 2026-04-26 18:45 | 54.26454 | -4.97781 | 24279 ft | 362 kts | 311° |
| 2026-04-26 18:45 | 54.28143 | -5.00968 | 24275 ft | 362 kts | 311° |
| 2026-04-26 18:46 | 54.29834 | -5.04155 | 24273 ft | 362 kts | 311° |
| 2026-04-26 18:46 | 54.31522 | -5.07344 | 24276 ft | 361 kts | 311° |
| 2026-04-26 18:46 | 54.33209 | -5.10537 | 24273 ft | 361 kts | 310° |
| 2026-04-26 18:46 | 54.34892 | -5.13734 | 24271 ft | 361 kts | 310° |
| 2026-04-26 18:47 | 54.36574 | -5.16936 | 24270 ft | 361 kts | 310° |
| 2026-04-26 18:47 | 54.38256 | -5.20142 | 24272 ft | 361 kts | 310° |
| 2026-04-26 18:47 | 54.39935 | -5.23345 | 24272 ft | 361 kts | 310° |
| 2026-04-26 18:47 | 54.41613 | -5.26549 | 24273 ft | 361 kts | 310° |
| 2026-04-26 18:48 | 54.43295 | -5.29762 | 24274 ft | 361 kts | 310° |
| 2026-04-26 18:48 | 54.44976 | -5.32975 | 24276 ft | 361 kts | 310° |
| 2026-04-26 18:48 | 54.46673 | -5.36155 | 24273 ft | 361 kts | 311° |
| 2026-04-26 18:48 | 54.48407 | -5.39287 | 24275 ft | 362 kts | 312° |
| 2026-04-26 18:49 | 54.50148 | -5.42407 | 24276 ft | 361 kts | 310° |
| 2026-04-26 18:49 | 54.51610 | -5.45828 | 24277 ft | 359 kts | 299° |
| 2026-04-26 18:49 | 54.52663 | -5.49710 | 24273 ft | 358 kts | 288° |
| 2026-04-26 18:49 | 54.53427 | -5.53786 | 24275 ft | 358 kts | 287° |
| 2026-04-26 18:50 | 54.54181 | -5.57847 | 24125 ft | 353 kts | 287° |
| 2026-04-26 18:50 | 54.54921 | -5.61815 | 23889 ft | 344 kts | 287° |
| 2026-04-26 18:50 | 54.55646 | -5.65710 | 23629 ft | 339 kts | 287° |
| 2026-04-26 18:50 | 54.56361 | -5.69568 | 23348 ft | 337 kts | 287° |
| 2026-04-26 18:51 | 54.57072 | -5.73406 | 23081 ft | 335 kts | 287° |
| 2026-04-26 18:51 | 54.57779 | -5.77227 | 22807 ft | 334 kts | 287° |
| 2026-04-26 18:51 | 54.58481 | -5.81026 | 22533 ft | 332 kts | 287° |
| 2026-04-26 18:51 | 54.59175 | -5.84811 | 22268 ft | 330 kts | 287° |
| 2026-04-26 18:52 | 54.59867 | -5.88581 | 22003 ft | 329 kts | 287° |
| 2026-04-26 18:52 | 54.60550 | -5.92318 | 21718 ft | 324 kts | 287° |
| 2026-04-26 18:52 | 54.61223 | -5.96008 | 21332 ft | 321 kts | 287° |
| 2026-04-26 18:52 | 54.61890 | -5.99658 | 20937 ft | 318 kts | 287° |
| 2026-04-26 18:53 | 54.62552 | -6.03287 | 20546 ft | 316 kts | 287° |
| 2026-04-26 18:53 | 54.63208 | -6.06890 | 20158 ft | 314 kts | 287° |
| 2026-04-26 18:53 | 54.63859 | -6.10487 | 19767 ft | 313 kts | 287° |
| 2026-04-26 18:53 | 54.64503 | -6.14065 | 19369 ft | 312 kts | 287° |
| 2026-04-26 18:54 | 54.65138 | -6.17585 | 19007 ft | 311 kts | 287° |
| 2026-04-26 18:54 | 54.65790 | -6.21137 | 18617 ft | 310 kts | 290° |
| 2026-04-26 18:54 | 54.66749 | -6.24464 | 18180 ft | 310 kts | 303° |
| 2026-04-26 18:54 | 54.68016 | -6.27477 | 17763 ft | 310 kts | 305° |
| 2026-04-26 18:55 | 54.69287 | -6.30476 | 17354 ft | 309 kts | 304° |
| 2026-04-26 18:55 | 54.70550 | -6.33475 | 16951 ft | 308 kts | 304° |
| 2026-04-26 18:55 | 54.71810 | -6.36471 | 16549 ft | 307 kts | 304° |
| 2026-04-26 18:55 | 54.73067 | -6.39457 | 16148 ft | 307 kts | 304° |
| 2026-04-26 18:56 | 54.74324 | -6.42446 | 15764 ft | 307 kts | 304° |
| 2026-04-26 18:56 | 54.75578 | -6.45436 | 15366 ft | 307 kts | 304° |
| 2026-04-26 18:56 | 54.76830 | -6.48429 | 14979 ft | 307 kts | 304° |
| 2026-04-26 18:56 | 54.78094 | -6.51454 | 14423 ft | 312 kts | 304° |
| 2026-04-26 18:57 | 54.79367 | -6.54500 | 14024 ft | 312 kts | 305° |
| 2026-04-26 18:57 | 54.80206 | -6.56512 | 13771 ft | 310 kts | 304° |
| 2026-04-26 18:57 | 54.81891 | -6.60540 | 13253 ft | 305 kts | 304° |
| 2026-04-26 18:57 | 54.83108 | -6.63451 | 12910 ft | 291 kts | 304° |
| 2026-04-26 18:58 | 54.84270 | -6.66240 | 12526 ft | 280 kts | 304° |
| 2026-04-26 18:58 | 54.85373 | -6.68894 | 12156 ft | 270 kts | 304° |
| 2026-04-26 18:58 | 54.86457 | -6.71490 | 11810 ft | 262 kts | 304° |
| 2026-04-26 18:58 | 54.87523 | -6.74033 | 11459 ft | 259 kts | 304° |
| 2026-04-26 18:59 | 54.88586 | -6.76562 | 11117 ft | 260 kts | 304° |
| 2026-04-26 18:59 | 54.89654 | -6.79102 | 10725 ft | 262 kts | 304° |
| 2026-04-26 18:59 | 54.90736 | -6.81675 | 10316 ft | 265 kts | 304° |
| 2026-04-26 18:59 | 54.91829 | -6.84272 | 9905 ft | 267 kts | 304° |
| 2026-04-26 19:00 | 54.92703 | -6.87067 | 9532 ft | 262 kts | 283° |
| 2026-04-26 19:00 | 54.92734 | -6.90186 | 9161 ft | 260 kts | 255° |
| 2026-04-26 19:00 | 54.91880 | -6.92914 | 8842 ft | 259 kts | 227° |
| 2026-04-26 19:00 | 54.90411 | -6.94719 | 8498 ft | 260 kts | 211° |
| 2026-04-26 19:01 | 54.88818 | -6.96174 | 8165 ft | 257 kts | 209° |
| 2026-04-26 19:01 | 54.87238 | -6.97587 | 7870 ft | 253 kts | 212° |
| 2026-04-26 19:01 | 54.85809 | -6.99299 | 7590 ft | 247 kts | 221° |
| 2026-04-26 19:01 | 54.84557 | -7.01306 | 7315 ft | 244 kts | 228° |
| 2026-04-26 19:02 | 54.83498 | -7.03574 | 7051 ft | 241 kts | 236° |
| 2026-04-26 19:02 | 54.82645 | -7.06040 | 6778 ft | 236 kts | 245° |
| 2026-04-26 19:02 | 54.82059 | -7.08665 | 6496 ft | 232 kts | 255° |
| 2026-04-26 19:02 | 54.81837 | -7.10465 | 6299 ft | 229 kts | 263° |
| 2026-04-26 19:03 | 54.81676 | -7.14116 | 5895 ft | 226 kts | 267° |
| 2026-04-26 19:03 | 54.81893 | -7.16796 | 5549 ft | 226 kts | 288° |
| 2026-04-26 19:03 | 54.82482 | -7.19280 | 5233 ft | 226 kts | 292° |
| 2026-04-26 19:03 | 54.83128 | -7.21755 | 4900 ft | 225 kts | 293° |
| 2026-04-26 19:04 | 54.83772 | -7.24219 | 4598 ft | 223 kts | 293° |
| 2026-04-26 19:04 | 54.84407 | -7.26657 | 4348 ft | 221 kts | 293° |
| 2026-04-26 19:04 | 54.85039 | -7.29088 | 4088 ft | 221 kts | 293° |
| 2026-04-26 19:04 | 54.85672 | -7.31511 | 3835 ft | 220 kts | 293° |
| 2026-04-26 19:05 | 54.87031 | -7.36236 | 3499 ft | 219 kts | 301° |
| 2026-04-26 19:05 | 54.87879 | -7.38432 | 3506 ft | 219 kts | 303° |
| 2026-04-26 19:05 | 54.88831 | -7.40499 | 3502 ft | 221 kts | 313° |
| 2026-04-26 19:06 | 54.89931 | -7.42367 | 3505 ft | 221 kts | 316° |
| 2026-04-26 19:06 | 54.91135 | -7.44039 | 3502 ft | 222 kts | 323° |
| 2026-04-26 19:06 | 54.92471 | -7.45406 | 3504 ft | 224 kts | 332° |
| 2026-04-26 19:06 | 54.93944 | -7.46301 | 3504 ft | 227 kts | 347° |
| 2026-04-26 19:07 | 54.95530 | -7.46337 | 3505 ft | 231 kts | 7° |
| 2026-04-26 19:07 | 54.97056 | -7.45437 | 3406 ft | 233 kts | 26° |
| 2026-04-26 19:07 | 54.98306 | -7.43691 | 3210 ft | 231 kts | 47° |
| 2026-04-26 19:07 | 54.99119 | -7.41297 | 2938 ft | 228 kts | 68° |
| 2026-04-26 19:08 | 54.99659 | -7.38764 | 2641 ft | 218 kts | 68° |
| 2026-04-26 19:08 | 55.00174 | -7.36344 | 2375 ft | 208 kts | 68° |
| 2026-04-26 19:08 | 55.00650 | -7.34065 | 2091 ft | 196 kts | 68° |
| 2026-04-26 19:08 | 55.01107 | -7.31863 | 1816 ft | 188 kts | 68° |
| 2026-04-26 19:09 | 55.01533 | -7.29809 | 1581 ft | 173 kts | 67° |
| 2026-04-26 19:09 | 55.01935 | -7.27869 | 1341 ft | 168 kts | 68° |
| 2026-04-26 19:09 | 55.02325 | -7.25989 | 1107 ft | 163 kts | 68° |
| 2026-04-26 19:09 | 55.02699 | -7.24183 | 865 ft | 156 kts | 69° |
| 2026-04-26 19:10 | 55.03055 | -7.22494 | 663 ft | 141 kts | 70° |
| 2026-04-26 19:10 | 55.03377 | -7.20918 | 435 ft | 134 kts | 69° |
| 2026-04-26 19:10 | 55.03692 | -7.19403 | 256 ft | 131 kts | 69° |
| 2026-04-26 19:10 | 55.03971 | -7.17899 | 102 ft | 130 kts | 71° |
| 2026-04-26 19:11 | 55.04225 | -7.16456 | 27 ft | 103 kts | 73° |
| 2026-04-26 19:11 | 55.04347 | -7.15757 | 23 ft | 29 kts | 73° |
| 2026-04-26 19:11 | 55.04407 | -7.15413 | 22 ft | 30 kts | 73° |
| 2026-04-26 19:11 | 55.04464 | -7.15075 | 20 ft | 29 kts | 73° |
| 2026-04-26 19:12 | 55.04494 | -7.14874 | 19 ft | 14 kts | 97° |
| 2026-04-26 19:12 | 55.04523 | -7.14823 | 20 ft | 7 kts | 290° |
| 2026-04-26 19:12 | 55.04498 | -7.14914 | 21 ft | 17 kts | 243° |
| 2026-04-26 19:12 | 55.04441 | -7.15220 | 24 ft | 29 kts | 253° |
| 2026-04-26 19:13 | 55.04380 | -7.15549 | 25 ft | 28 kts | 252° |
| 2026-04-26 19:13 | 55.04326 | -7.15868 | 26 ft | 21 kts | 252° |
| 2026-04-26 19:13 | 55.04246 | -7.15927 | 24 ft | 11 kts | 174° |
| 2026-04-26 19:13 | 55.04170 | -7.15905 | 26 ft | 12 kts | 167° |
| 2026-04-26 19:14 | 55.04083 | -7.15858 | 27 ft | 14 kts | 139° |
| 2026-04-26 19:14 | 55.04021 | -7.15818 | 25 ft | 4 kts | 170° |
| 2026-04-26 19:14 | 55.04007 | -7.15812 | 25 ft | 0 kts | 166° |
| 2026-04-26 19:14 | 55.04006 | -7.15812 | 25 ft | 0 kts | 166° |